Terminal Aerodrome Forecast
Issued by NWS

Home | Current Version | Previous Version | Text Only | Print | Product List | Glossary On
Versions: 1 2 3 4 5 6 7 8 9 10 11 12 13 14 15
000
FTUS45 KRIW 241724
TAFPNA
TAF
KPNA 241724Z 2418/2518 30014G22KT 6SM -SHRA BKN025
     FM242000 29012G22KT P6SM VCSH BKN040
     FM250100 30008KT P6SM SCT040 SCT100
     FM251700 30007KT P6SM SCT100
      AMD LTD TO CLD VIS AND WIND=

USA.gov is the U.S. government's official web portal to all federal, state and local government web resources and services.